| time (UTC) | temp C | wind direction | speed KPH | gust KPH | rain 1hr cm | rain 24hr cm | rain mn cm | humidity % | barometer mb |
| 20260509053703 | 24 | 32 | 3.2 | 8.0 | 0.00 | 0.00 | 0.00 | 85 | 1015.0 |
| 20260509053203 | 24 | 71 | 3.2 | 8.0 | 0.00 | 0.00 | 0.00 | 85 | 1015.3 |
| 20260509052703 | 24 | 74 | 3.2 | 11.3 | 0.00 | 0.00 | 0.00 | 85 | 1015.5 |
| 20260509052203 | 24 | 52 | 3.2 | 8.0 | 0.00 | 0.00 | 0.00 | 86 | 1015.5 |
| 20260509051703 | 24 | 48 | 1.6 | 4.8 | 0.00 | 0.00 | 0.00 | 86 | 1015.6 |
| 20260509050702 | 24 | 89 | 4.8 | 9.7 | 0.00 | 0.00 | 0.00 | 85 | 1015.8 |
| 20260509050204 | 24 | 87 | 3.2 | 8.0 | 0.00 | 0.00 | 0.00 | 86 | 1015.9 |
| 20260509045203 | 24 | 80 | 4.8 | 12.9 | 0.00 | 0.00 | 0.00 | 86 | 1015.9 |
| 20260509044703 | 24 | 46 | 1.6 | 9.7 | 0.00 | 0.00 | 0.00 | 85 | 1015.8 |
| 20260509044203 | 24 | 67 | 4.8 | 12.9 | 0.00 | 0.00 | 0.00 | 85 | 1015.8 |
| 20260509043703 | 24 | 57 | 4.8 | 8.0 | 0.00 | 0.00 | 0.00 | 85 | 1015.9 |
| 20260509043203 | 24 | 49 | 1.6 | 4.8 | 0.00 | 0.00 | 0.00 | 86 | 1016.0 |
| 20260509042703 | 24 | 74 | 3.2 | 14.5 | 0.00 | 0.00 | 0.00 | 86 | 1016.1 |
| 20260509041703 | 24 | 84 | 3.2 | 8.0 | 0.00 | 0.00 | 0.00 | 86 | 1016.2 |
| 20260509040203 | 24 | 70 | 3.2 | 4.8 | 0.00 | 0.00 | 0.00 | 86 | 1016.3 |
| 20260509035702 | 24 | 79 | 3.2 | 8.0 | 0.00 | 0.00 | 0.00 | 86 | 1016.4 |
| 20260509035203 | 24 | 91 | 3.2 | 4.8 | 0.00 | 0.00 | 0.00 | 86 | 1016.3 |
| 20260509034703 | 24 | 66 | 8.0 | 12.9 | 0.00 | 0.00 | 0.00 | 86 | 1016.4 |
| 20260509034203 | 24 | 99 | 6.4 | 16.1 | 0.00 | 0.00 | 0.00 | 85 | 1016.2 |
| 20260509033703 | 24 | 99 | 3.2 | 8.0 | 0.00 | 0.00 | 0.00 | 85 | 1016.3 |
| 20260509033203 | 25 | 52 | 4.8 | 9.7 | 0.00 | 0.00 | 0.00 | 85 | 1016.4 |
| 20260509032703 | 25 | 53 | 6.4 | 12.9 | 0.00 | 0.00 | 0.00 | 85 | 1016.5 |
| 20260509032203 | 25 | 73 | 3.2 | 11.3 | 0.00 | 0.00 | 0.00 | 85 | 1016.5 |
| 20260509031703 | 25 | 84 | 4.8 | 9.7 | 0.00 | 0.00 | 0.00 | 85 | 1016.5 |
| 20260509031203 | 25 | 87 | 4.8 | 9.7 | 0.00 | 0.00 | 0.00 | 85 | 1016.5 |
| 20260509030703 | 25 | 88 | 4.8 | 12.9 | 0.00 | 0.00 | 0.00 | 85 | 1016.5 |
| 20260509030203 | 25 | 62 | 3.2 | 9.7 | 0.00 | 0.00 | 0.00 | 86 | 1016.4 |
| 20260509025703 | 25 | 84 | 3.2 | 12.9 | 0.00 | 0.00 | 0.00 | 86 | 1016.5 |
| 20260509025203 | 24 | 94 | 4.8 | 12.9 | 0.00 | 0.00 | 0.00 | 85 | 1016.6 |
| 20260509024704 | 24 | 75 | 6.4 | 12.9 | 0.00 | 0.00 | 0.00 | 85 | 1016.5 |
| 20260509024203 | 24 | 100 | 4.8 | 12.9 | 0.00 | 0.00 | 0.00 | 85 | 1016.5 |
| 20260509023703 | 24 | 85 | 6.4 | 19.3 | 0.00 | 0.00 | 0.00 | 85 | 1016.4 |
| 20260509023204 | 25 | 83 | 4.8 | 11.3 | 0.00 | 0.00 | 0.00 | 85 | 1016.4 |
| 20260509022703 | 25 | 83 | 4.8 | 11.3 | 0.00 | 0.00 | 0.00 | 85 | 1016.4 |
| 20260509022204 | 24 | 160 | 3.2 | 8.0 | 0.00 | 0.00 | 0.00 | 86 | 1016.5 |
| 20260509021703 | 24 | 61 | 4.8 | 12.9 | 0.00 | 0.00 | 0.00 | 87 | 1016.5 |
| 20260509021203 | 24 | 84 | 8.0 | 19.3 | 0.00 | 0.00 | 0.00 | 87 | 1016.5 |
| 20260509020703 | 24 | 57 | 3.2 | 11.3 | 0.00 | 0.00 | 0.00 | 88 | 1016.5 |
| 20260509020203 | 24 | 63 | 8.0 | 16.1 | 0.00 | 0.00 | 0.00 | 87 | 1016.5 |
| 20260509015703 | 24 | 84 | 8.0 | 16.1 | 0.00 | 0.00 | 0.00 | 88 | 1016.6 |
| 20260509015203 | 24 | 58 | 4.8 | 11.3 | 0.00 | 0.00 | 0.00 | 87 | 1016.8 |
| 20260509014703 | 24 | 88 | 4.8 | 8.0 | 0.00 | 0.00 | 0.00 | 87 | 1016.7 |
| 20260509014203 | 24 | 94 | 1.6 | 11.3 | 0.00 | 0.00 | 0.00 | 88 | 1016.5 |
| 20260509013704 | 24 | 85 | 3.2 | 9.7 | 0.00 | 0.00 | 0.00 | 87 | 1016.6 |
| 20260509013203 | 24 | 90 | 4.8 | 11.3 | 0.00 | 0.00 | 0.00 | 87 | 1016.5 |
| 20260509012703 | 24 | 96 | 4.8 | 14.5 | 0.00 | 0.00 | 0.00 | 88 | 1016.5 |
| 20260509012203 | 24 | 76 | 8.0 | 14.5 | 0.00 | 0.00 | 0.00 | 87 | 1016.4 |
| 20260509011703 | 24 | 26 | 3.2 | 8.0 | 0.00 | 0.00 | 0.00 | 89 | 1016.6 |
| 20260509011203 | 24 | 82 | 6.4 | 14.5 | 0.00 | 0.00 | 0.00 | 88 | 1016.5 |
| 20260509010703 | 24 | 60 | 4.8 | 11.3 | 0.00 | 0.00 | 0.00 | 88 | 1016.5 |
| 20260509010203 | 23 | 74 | 4.8 | 12.9 | 0.00 | 0.00 | 0.00 | 89 | 1016.4 |
| 20260509005703 | 23 | 45 | 3.2 | 12.9 | 0.00 | 0.00 | 0.00 | 90 | 1016.3 |
| 20260509005203 | 23 | 76 | 3.2 | 8.0 | 0.00 | 0.00 | 0.00 | 89 | 1016.2 |
| 20260509004703 | 23 | 75 | 4.8 | 9.7 | 0.00 | 0.00 | 0.00 | 89 | 1016.1 |
| 20260509004203 | 23 | 29 | 3.2 | 9.7 | 0.00 | 0.00 | 0.00 | 89 | 1016.2 |
| 20260509003204 | 23 | 81 | 1.6 | 4.8 | 0.00 | 0.00 | 0.00 | 90 | 1015.9 |
| 20260509002704 | 23 | 58 | 3.2 | 4.8 | 0.00 | 0.00 | 0.00 | 91 | 1015.9 |
| 20260509002203 | 23 | 78 | 1.6 | 4.8 | 0.00 | 0.00 | 0.00 | 91 | 1015.8 |
| 20260509001703 | 23 | 41 | 1.6 | 3.2 | 0.00 | 0.00 | 0.00 | 91 | 1015.7 |
| 20260509001204 | 23 | 62 | 1.6 | 3.2 | 0.00 | 0.00 | 0.00 | 91 | 1015.8 |
| 20260509000703 | 23 | 73 | 3.2 | 8.0 | 0.00 | 0.00 | 0.00 | 92 | 1015.7 |
| 20260509000204 | 23 | 60 | 3.2 | 9.7 | 0.00 | 0.00 | 0.00 | 92 | 1015.6 |
| 20260508235203 | 23 | 72 | 3.2 | 8.0 | 0.00 | 0.00 | 0.00 | 92 | 1015.6 |
| 20260508234703 | 23 | 74 | 3.2 | 9.7 | 0.00 | 0.00 | 0.00 | 92 | 1015.6 |
| 20260508234203 | 23 | 95 | 6.4 | 16.1 | 0.00 | 0.00 | 0.00 | 92 | 1015.4 |
| 20260508233703 | 23 | 88 | 3.2 | 11.3 | 0.00 | 0.00 | 0.00 | 92 | 1015.5 |
| 20260508233203 | 23 | 75 | 4.8 | 12.9 | 0.00 | 0.00 | 0.00 | 92 | 1015.5 |
| 20260508232703 | 23 | 63 | 3.2 | 8.0 | 0.00 | 0.00 | 0.00 | 92 | 1015.5 |
| 20260508231203 | 23 | 98 | 4.8 | 9.7 | 0.00 | 0.00 | 0.00 | 92 | 1015.3 |
| 20260508230703 | 23 | 77 | 3.2 | 8.0 | 0.00 | 0.00 | 0.00 | 92 | 1015.3 |
| 20260508230203 | 23 | 84 | 1.6 | 4.8 | 0.00 | 0.00 | 0.00 | 92 | 1015.2 |
| 20260508225703 | 23 | 66 | 1.6 | 4.8 | 0.00 | 0.00 | 0.00 | 92 | 1015.1 |
| 20260508225203 | 23 | 55 | 1.6 | 4.8 | 0.00 | 0.00 | 0.00 | 92 | 1015.1 |
| 20260508224704 | 23 | 40 | 3.2 | 4.8 | 0.00 | 0.00 | 0.00 | 92 | 1014.9 |
| 20260508224203 | 23 | 86 | 3.2 | 4.8 | 0.00 | 0.00 | 0.00 | 92 | 1015.0 |
| 20260508223704 | 23 | 59 | 3.2 | 11.3 | 0.00 | 0.00 | 0.00 | 92 | 1014.9 |
| 20260508223203 | 23 | 72 | 3.2 | 9.7 | 0.00 | 0.00 | 0.00 | 92 | 1014.7 |
| 20260508222703 | 23 | 67 | 4.8 | 11.3 | 0.00 | 0.00 | 0.00 | 92 | 1014.7 |
| 20260508222203 | 23 | 34 | 3.2 | 4.8 | 0.00 | 0.00 | 0.00 | 92 | 1014.6 |
| 20260508221703 | 23 | 43 | 0.0 | 8.0 | 0.00 | 0.00 | 0.00 | 92 | 1014.5 |
| 20260508221203 | 23 | 69 | 3.2 | 9.7 | 0.00 | 0.00 | 0.00 | 92 | 1014.4 |
| 20260508220703 | 23 | 103 | 3.2 | 8.0 | 0.00 | 0.00 | 0.00 | 92 | 1014.4 |
| 20260508215203 | 23 | 78 | 1.6 | 4.8 | 0.00 | 0.00 | 0.00 | 92 | 1014.2 |
| 20260508214704 | 23 | 214 | 0.0 | 4.8 | 0.00 | 0.00 | 0.00 | 92 | 1014.1 |
| 20260508214203 | 23 | 86 | 4.8 | 9.7 | 0.00 | 0.00 | 0.00 | 92 | 1014.1 |
| 20260508213703 | 23 | 103 | 1.6 | 8.0 | 0.00 | 0.00 | 0.00 | 92 | 1014.1 |
| 20260508213203 | 23 | 93 | 4.8 | 12.9 | 0.00 | 0.00 | 0.00 | 92 | 1014.1 |
| 20260508212703 | 23 | 67 | 3.2 | 4.8 | 0.00 | 0.00 | 0.00 | 92 | 1014.0 |
| 20260508212203 | 23 | 13 | 3.2 | 8.0 | 0.00 | 0.00 | 0.00 | 92 | 1013.9 |
| 20260508211703 | 23 | 68 | 3.2 | 8.0 | 0.00 | 0.00 | 0.00 | 92 | 1014.0 |
| 20260508211203 | 23 | 89 | 3.2 | 8.0 | 0.00 | 0.00 | 0.00 | 92 | 1013.9 |
| 20260508210703 | 23 | 61 | 1.6 | 3.2 | 0.00 | 0.00 | 0.00 | 93 | 1013.8 |
| 20260508210204 | 23 | 117 | 1.6 | 4.8 | 0.00 | 0.00 | 0.00 | 93 | 1013.7 |
| 20260508205203 | 23 | 73 | 3.2 | 8.0 | 0.00 | 0.00 | 0.00 | 93 | 1013.5 |
| 20260508204703 | 23 | 67 | 3.2 | 9.7 | 0.00 | 0.00 | 0.00 | 93 | 1013.5 |
| 20260508204203 | 23 | 44 | 4.8 | 11.3 | 0.00 | 0.00 | 0.00 | 92 | 1013.4 |
| 20260508203204 | 23 | 75 | 3.2 | 4.8 | 0.00 | 0.00 | 0.00 | 93 | 1013.3 |
| 20260508202703 | 23 | 36 | 1.6 | 8.0 | 0.00 | 0.00 | 0.00 | 93 | 1013.4 |
| 20260508202203 | 23 | 45 | 4.8 | 9.7 | 0.00 | 0.00 | 0.00 | 93 | 1013.2 |
| 20260508201703 | 23 | 72 | 3.2 | 8.0 | 0.00 | 0.00 | 0.00 | 93 | 1013.1 |
| 20260508201204 | 23 | 25 | 3.2 | 4.8 | 0.00 | 0.00 | 0.00 | 93 | 1013.2 |
| 20260508200703 | 23 | 123 | 1.6 | 4.8 | 0.00 | 0.00 | 0.00 | 94 | 1013.2 |
| 20260508200204 | 23 | 78 | 1.6 | 3.2 | 0.00 | 0.00 | 0.00 | 93 | 1013.1 |
| 20260508195703 | 23 | 70 | 0.0 | 4.8 | 0.00 | 0.00 | 0.00 | 94 | 1013.0 |
| 20260508195204 | 23 | 86 | 4.8 | 11.3 | 0.00 | 0.00 | 0.00 | 93 | 1013.0 |
| 20260508194703 | 23 | 79 | 3.2 | 4.8 | 0.00 | 0.00 | 0.00 | 94 | 1013.1 |
| 20260508194204 | 23 | 76 | 4.8 | 8.0 | 0.00 | 0.00 | 0.00 | 93 | 1013.2 |
| 20260508193703 | 23 | 86 | 4.8 | 12.9 | 0.00 | 0.00 | 0.00 | 94 | 1013.2 |
| 20260508192204 | 23 | 53 | 1.6 | 8.0 | 0.00 | 0.00 | 0.00 | 95 | 1013.1 |
| 20260508191703 | 23 | 176 | 1.6 | 4.8 | 0.00 | 0.00 | 0.00 | 95 | 1013.3 |
| 20260508191203 | 23 | 121 | 1.6 | 8.0 | 0.00 | 0.00 | 0.00 | 95 | 1013.2 |
| 20260508190703 | 23 | 69 | 4.8 | 9.7 | 0.00 | 0.00 | 0.00 | 95 | 1013.1 |
| 20260508190204 | 23 | 99 | 4.8 | 11.3 | 0.00 | 0.00 | 0.00 | 95 | 1013.1 |
| 20260508185704 | 23 | 83 | 1.6 | 4.8 | 0.00 | 0.00 | 0.00 | 95 | 1013.2 |
| 20260508185203 | 23 | 83 | 0.0 | 3.2 | 0.00 | 0.00 | 0.00 | 95 | 1013.2 |
| 20260508184703 | 23 | 353 | 0.0 | 0.0 | 0.00 | 0.00 | 0.00 | 95 | 1013.2 |
| 20260508184203 | 23 | 354 | 1.6 | 3.2 | 0.00 | 0.00 | 0.00 | 95 | 1013.0 |
| 20260508183703 | 23 | 323 | 1.6 | 4.8 | 0.00 | 0.00 | 0.00 | 95 | 1013.1 |
| 20260508183204 | 23 | 330 | 1.6 | 1.6 | 0.00 | 0.00 | 0.00 | 95 | 1013.1 |
| 20260508182704 | 23 | 330 | 0.0 | 1.6 | 0.00 | 0.00 | 0.00 | 95 | 1013.2 |
| 20260508182203 | 23 | 327 | 0.0 | 1.6 | 0.00 | 0.00 | 0.00 | 94 | 1013.2 |
| 20260508181704 | 23 | 326 | 0.0 | 1.6 | 0.00 | 0.00 | 0.00 | 94 | 1013.4 |
| 20260508180204 | 24 | 354 | 3.2 | 4.8 | 0.00 | 0.00 | 0.00 | 93 | 1013.7 |
| 20260508175703 | 24 | 3 | 3.2 | 4.8 | 0.00 | 0.00 | 0.00 | 93 | 1013.9 |
| 20260508175203 | 24 | 26 | 0.0 | 3.2 | 0.00 | 0.00 | 0.00 | 93 | 1014.0 |
| 20260508174703 | 24 | 70 | 1.6 | 4.8 | 0.00 | 0.00 | 0.00 | 93 | 1014.0 |
| 20260508174204 | 24 | 41 | 1.6 | 4.8 | 0.00 | 0.00 | 0.00 | 92 | 1013.9 |
| 20260508173704 | 25 | 88 | 1.6 | 4.8 | 0.00 | 0.00 | 0.00 | 92 | 1013.9 |
| 20260508173204 | 25 | 31 | 3.2 | 4.8 | 0.00 | 0.00 | 0.00 | 93 | 1013.8 |
| 20260508172703 | 25 | 126 | 1.6 | 3.2 | 0.00 | 0.00 | 0.00 | 93 | 1013.9 |
| 20260508172203 | 25 | 69 | 3.2 | 8.0 | 0.00 | 0.00 | 0.00 | 92 | 1013.9 |
| 20260508171703 | 25 | 55 | 3.2 | 12.9 | 0.00 | 0.00 | 0.00 | 92 | 1013.8 |
| 20260508171203 | 25 | 4 | 1.6 | 8.0 | 0.00 | 0.00 | 0.00 | 92 | 1013.7 |
| 20260508170704 | 25 | 329 | 0.0 | 8.0 | 0.00 | 0.00 | 0.00 | 92 | 1013.7 |
| 20260508170203 | 26 | 284 | 0.0 | 4.8 | 0.00 | 0.00 | 0.00 | 92 | 1013.6 |
| 20260508165203 | 26 | 320 | 0.0 | 1.6 | 0.00 | 0.00 | 0.00 | 91 | 1013.8 |
| 20260508164704 | 26 | 5 | 0.0 | 3.2 | 0.00 | 0.00 | 0.00 | 91 | 1013.8 |
| 20260508164203 | 26 | 314 | 3.2 | 4.8 | 0.00 | 0.00 | 0.00 | 91 | 1013.8 |
| 20260508163705 | 26 | 319 | 1.6 | 3.2 | 0.00 | 0.00 | 0.00 | 91 | 1013.8 |
| 20260508163203 | 26 | 5 | 1.6 | 4.8 | 0.00 | 0.00 | 0.00 | 91 | 1013.8 |
| 20260508162703 | 26 | 26 | 1.6 | 4.8 | 0.00 | 0.00 | 0.00 | 90 | 1013.9 |
| 20260508161704 | 26 | 70 | 1.6 | 4.8 | 0.00 | 0.00 | 0.00 | 91 | 1013.9 |
| 20260508161203 | 26 | 337 | 0.0 | 4.8 | 0.00 | 0.00 | 0.00 | 91 | 1014.0 |
| 20260508160704 | 26 | 308 | 1.6 | 4.8 | 0.00 | 0.00 | 0.00 | 90 | 1014.1 |
| 20260508160205 | 26 | 330 | 3.2 | 4.8 | 0.00 | 0.00 | 0.00 | 89 | 1014.1 |
| 20260508155704 | 26 | 327 | 1.6 | 4.8 | 0.00 | 0.00 | 0.00 | 89 | 1014.0 |
| 20260508155204 | 26 | 75 | 3.2 | 4.8 | 0.00 | 0.00 | 0.00 | 89 | 1014.1 |
| 20260508154704 | 26 | 38 | 3.2 | 8.0 | 0.00 | 0.00 | 0.00 | 89 | 1014.1 |
| 20260508154204 | 27 | 73 | 1.6 | 3.2 | 0.00 | 0.00 | 0.00 | 89 | 1014.1 |
| 20260508153704 | 27 | 19 | 1.6 | 4.8 | 0.00 | 0.00 | 0.00 | 89 | 1014.1 |
| 20260508153203 | 27 | 355 | 3.2 | 4.8 | 0.00 | 0.00 | 0.00 | 88 | 1014.2 |
| 20260508152703 | 27 | 70 | 1.6 | 3.2 | 0.00 | 0.00 | 0.00 | 88 | 1014.2 |
| 20260508150704 | 27 | 70 | 1.6 | 3.2 | 0.00 | 0.00 | 0.00 | 87 | 1014.1 |
| 20260508145704 | 27 | 163 | 3.2 | 4.8 | 0.00 | 0.00 | 0.00 | 88 | 1014.2 |
| 20260508145204 | 27 | 156 | 1.6 | 4.8 | 0.00 | 0.00 | 0.00 | 88 | 1014.3 |
| 20260508144204 | 27 | 178 | 0.0 | 3.2 | 0.00 | 0.00 | 0.00 | 88 | 1014.4 |
| 20260508143704 | 27 | 48 | 1.6 | 3.2 | 0.00 | 0.00 | 0.00 | 88 | 1014.3 |
| 20260508143204 | 27 | 61 | 0.0 | 1.6 | 0.00 | 0.00 | 0.00 | 88 | 1014.4 |
| 20260508142703 | 27 | 49 | 1.6 | 3.2 | 0.00 | 0.00 | 0.00 | 88 | 1014.4 |
| 20260508142204 | 27 | 28 | 1.6 | 4.8 | 0.00 | 0.00 | 0.00 | 88 | 1014.4 |
| 20260508141704 | 27 | 24 | 1.6 | 3.2 | 0.00 | 0.00 | 0.00 | 87 | 1014.4 |
| 20260508140704 | 27 | 73 | 1.6 | 3.2 | 0.00 | 0.00 | 0.00 | 87 | 1014.3 |
| 20260508140203 | 27 | 106 | 0.0 | 1.6 | 0.00 | 0.00 | 0.00 | 87 | 1014.2 |
| 20260508135704 | 27 | 154 | 1.6 | 3.2 | 0.00 | 0.00 | 0.00 | 87 | 1014.1 |
| 20260508135204 | 27 | 79 | 1.6 | 4.8 | 0.00 | 0.00 | 0.00 | 87 | 1014.1 |
| 20260508134704 | 27 | 147 | 1.6 | 4.8 | 0.00 | 0.00 | 0.00 | 87 | 1014.2 |
| 20260508134204 | 27 | 229 | 1.6 | 3.2 | 0.00 | 0.00 | 0.00 | 87 | 1014.1 |
| 20260508133704 | 27 | 156 | 1.6 | 4.8 | 0.00 | 0.00 | 0.00 | 87 | 1014.0 |
| 20260508133204 | 27 | 145 | 3.2 | 8.0 | 0.00 | 0.00 | 0.00 | 87 | 1013.9 |
| 20260508132704 | 27 | 140 | 3.2 | 4.8 | 0.00 | 0.00 | 0.00 | 87 | 1013.8 |
| 20260508131704 | 27 | 162 | 3.2 | 4.8 | 0.00 | 0.00 | 0.00 | 87 | 1013.9 |
| 20260508131204 | 27 | 154 | 4.8 | 9.7 | 0.00 | 0.00 | 0.00 | 86 | 1013.8 |
| 20260508130704 | 27 | 138 | 4.8 | 9.7 | 0.00 | 0.00 | 0.00 | 86 | 1013.8 |
| 20260508130203 | 27 | 159 | 3.2 | 4.8 | 0.00 | 0.00 | 0.00 | 86 | 1013.9 |
| 20260508125704 | 27 | 126 | 1.6 | 4.8 | 0.00 | 0.00 | 0.00 | 86 | 1013.8 |
| 20260508125203 | 27 | 24 | 0.0 | 3.2 | 0.00 | 0.00 | 0.00 | 86 | 1013.7 |
| 20260508124704 | 27 | 231 | 1.6 | 3.2 | 0.00 | 0.00 | 0.00 | 86 | 1013.7 |
| 20260508124203 | 27 | 72 | 0.0 | 1.6 | 0.00 | 0.00 | 0.00 | 86 | 1013.6 |
| 20260508123702 | 27 | 72 | 0.0 | 1.6 | 0.00 | 0.00 | 0.00 | 86 | 1013.6 |
| 20260508123203 | 27 | 72 | 0.0 | 1.6 | 0.00 | 0.00 | 0.00 | 86 | 1013.5 |
| 20260508122703 | 27 | 72 | 1.6 | 4.8 | 0.00 | 0.00 | 0.00 | 86 | 1013.4 |
| 20260508122203 | 27 | 40 | 1.6 | 1.6 | 0.00 | 0.00 | 0.00 | 85 | 1013.3 |
| 20260508121703 | 27 | 195 | 0.0 | 3.2 | 0.00 | 0.00 | 0.00 | 85 | 1013.3 |
| 20260508121202 | 27 | 168 | 0.0 | 3.2 | 0.00 | 0.00 | 0.00 | 85 | 1013.2 |
| 20260508120703 | 27 | 153 | 0.0 | 1.6 | 0.00 | 0.00 | 0.00 | 85 | 1013.2 |
| 20260508120203 | 27 | 157 | 0.0 | 1.6 | 0.00 | 0.00 | 0.00 | 85 | 1013.1 |
| 20260508115703 | 27 | 157 | 1.6 | 4.8 | 0.00 | 0.00 | 0.00 | 85 | 1013.0 |
| 20260508115202 | 27 | 127 | 1.6 | 8.0 | 0.00 | 0.00 | 0.00 | 85 | 1012.8 |
| 20260508114702 | 27 | 147 | 3.2 | 9.7 | 0.00 | 0.00 | 0.00 | 85 | 1012.8 |
| 20260508114203 | 27 | 142 | 3.2 | 9.7 | 0.00 | 0.00 | 0.00 | 85 | 1012.7 |
| 20260508113703 | 27 | 141 | 3.2 | 9.7 | 0.00 | 0.00 | 0.00 | 85 | 1012.7 |
| 20260508113202 | 27 | 153 | 4.8 | 9.7 | 0.00 | 0.00 | 0.00 | 85 | 1012.7 |
| 20260508112703 | 28 | 149 | 1.6 | 9.7 | 0.00 | 0.00 | 0.00 | 84 | 1012.8 |
| 20260508112202 | 28 | 114 | 0.0 | 3.2 | 0.00 | 0.00 | 0.00 | 85 | 1012.7 |
| 20260508111703 | 28 | 153 | 3.2 | 4.8 | 0.00 | 0.00 | 0.00 | 84 | 1012.6 |
| 20260508111202 | 28 | 242 | 0.0 | 4.8 | 0.00 | 0.00 | 0.00 | 84 | 1012.5 |
| 20260508110703 | 28 | 212 | 1.6 | 4.8 | 0.00 | 0.00 | 0.00 | 84 | 1012.6 |
| 20260508110202 | 28 | 215 | 3.2 | 4.8 | 0.00 | 0.00 | 0.00 | 84 | 1012.4 |
| 20260508105203 | 28 | 141 | 1.6 | 8.0 | 0.00 | 0.00 | 0.00 | 84 | 1012.2 |
| 20260508104203 | 28 | 157 | 0.0 | 4.8 | 0.00 | 0.00 | 0.00 | 83 | 1012.2 |
| 20260508103203 | 28 | 82 | 1.6 | 3.2 | 0.00 | 0.00 | 0.00 | 83 | 1012.1 |
| 20260508102703 | 28 | 66 | 1.6 | 1.6 | 0.00 | 0.00 | 0.00 | 82 | 1012.0 |
| 20260508102202 | 28 | 62 | 0.0 | 3.2 | 0.00 | 0.00 | 0.00 | 82 | 1011.9 |
| 20260508100203 | 28 | 80 | 1.6 | 3.2 | 0.00 | 0.00 | 0.00 | 82 | 1011.8 |
| 20260508095703 | 28 | 85 | 1.6 | 3.2 | 0.00 | 0.00 | 0.00 | 82 | 1011.6 |
| 20260508095203 | 28 | 81 | 3.2 | 4.8 | 0.00 | 0.00 | 0.00 | 82 | 1011.5 |
| 20260508093702 | 28 | 84 | 1.6 | 3.2 | 0.00 | 0.00 | 0.00 | 82 | 1011.3 |
| 20260508092702 | 28 | 78 | 1.6 | 3.2 | 0.00 | 0.00 | 0.00 | 83 | 1011.3 |
| 20260508092203 | 28 | 59 | 1.6 | 4.8 | 0.00 | 0.00 | 0.00 | 83 | 1011.3 |
| 20260508091703 | 28 | 82 | 0.0 | 1.6 | 0.00 | 0.00 | 0.00 | 83 | 1011.2 |
| 20260508091203 | 28 | 82 | 0.0 | 1.6 | 0.00 | 0.00 | 0.00 | 83 | 1011.4 |
| 20260508090703 | 28 | 79 | 1.6 | 3.2 | 0.00 | 0.00 | 0.00 | 83 | 1011.4 |
| 20260508090202 | 28 | 77 | 0.0 | 1.6 | 0.00 | 0.00 | 0.00 | 83 | 1011.3 |
| 20260508085703 | 28 | 77 | 1.6 | 3.2 | 0.00 | 0.00 | 0.00 | 83 | 1011.3 |
| 20260508085203 | 28 | 73 | 1.6 | 3.2 | 0.00 | 0.00 | 0.00 | 83 | 1011.3 |
| 20260508084703 | 28 | 82 | 0.0 | 3.2 | 0.00 | 0.00 | 0.00 | 83 | 1011.3 |
| 20260508083703 | 28 | 84 | 0.0 | 1.6 | 0.00 | 0.00 | 0.00 | 84 | 1011.3 |
| 20260508083203 | 28 | 74 | 1.6 | 3.2 | 0.00 | 0.00 | 0.00 | 84 | 1011.3 |
| 20260508082703 | 28 | 65 | 0.0 | 1.6 | 0.00 | 0.00 | 0.00 | 84 | 1011.4 |
| 20260508082203 | 28 | 65 | 1.6 | 1.6 | 0.00 | 0.00 | 0.00 | 84 | 1011.4 |
| 20260508081702 | 28 | 67 | 1.6 | 3.2 | 0.00 | 0.00 | 0.00 | 84 | 1011.4 |
| 20260508081203 | 28 | 86 | 1.6 | 4.8 | 0.00 | 0.00 | 0.00 | 84 | 1011.4 |
| 20260508080703 | 28 | 57 | 0.0 | 1.6 | 0.00 | 0.00 | 0.00 | 85 | 1011.5 |
| 20260508080202 | 28 | 80 | 3.2 | 8.0 | 0.00 | 0.00 | 0.00 | 83 | 1011.5 |
| 20260508074702 | 29 | 79 | 4.8 | 8.0 | 0.00 | 0.00 | 0.00 | 79 | 1011.5 |
| 20260508074203 | 29 | 90 | 1.6 | 4.8 | 0.00 | 0.00 | 0.00 | 78 | 1011.5 |
| 20260508073203 | 29 | 146 | 1.6 | 4.8 | 0.00 | 0.00 | 0.00 | 79 | 1011.4 |
| 20260508072702 | 29 | 151 | 3.2 | 9.7 | 0.00 | 0.00 | 0.00 | 79 | 1011.5 |
| 20260508072203 | 29 | 137 | 4.8 | 9.7 | 0.00 | 0.00 | 0.00 | 80 | 1011.5 |
| 20260508071703 | 30 | 144 | 4.8 | 9.7 | 0.00 | 0.00 | 0.00 | 79 | 1011.5 |
| 20260508070703 | 30 | 163 | 3.2 | 8.0 | 0.00 | 0.00 | 0.00 | 79 | 1011.5 |
| 20260508070203 | 30 | 127 | 3.2 | 8.0 | 0.00 | 0.00 | 0.00 | 79 | 1011.5 |
| 20260508065703 | 30 | 128 | 3.2 | 8.0 | 0.00 | 0.00 | 0.00 | 79 | 1011.5 |
| 20260508064203 | 30 | 144 | 8.0 | 12.9 | 0.00 | 0.00 | 0.00 | 78 | 1011.7 |
| 20260508063702 | 30 | 171 | 8.0 | 12.9 | 0.00 | 0.00 | 0.00 | 76 | 1011.8 |
| 20260508062703 | 30 | 171 | 6.4 | 14.5 | 0.00 | 0.00 | 0.00 | 74 | 1011.7 |
| 20260508062204 | 30 | 152 | 1.6 | 9.7 | 0.00 | 0.00 | 0.00 | 74 | 1011.7 |
| 20260508061703 | 31 | 282 | 3.2 | 11.3 | 0.00 | 0.00 | 0.00 | 74 | 1011.8 |
| 20260508061203 | 31 | 272 | 4.8 | 11.3 | 0.00 | 0.00 | 0.00 | 74 | 1011.6 |
| 20260508060703 | 31 | 302 | 8.0 | 16.1 | 0.00 | 0.00 | 0.00 | 72 | 1011.6 |
| 20260508055702 | 32 | 321 | 6.4 | 11.3 | 0.00 | 0.00 | 0.00 | 72 | 1011.6 |
| 20260508055203 | 31 | 6 | 1.6 | 8.0 | 0.00 | 0.00 | 0.00 | 72 | 1011.7 |
| 20260508054703 | 31 | 308 | 4.8 | 9.7 | 0.00 | 0.00 | 0.00 | 74 | 1011.7 |
| 20260508054203 | 30 | 356 | 4.8 | 11.3 | 0.00 | 0.00 | 0.00 | 74 | 1011.7 |